sensor_id;sensor_type;location;lat;lon;timestamp;temperature;humidity
12386;DHT22;6257;57.634;18.310;2022-09-17T00:00:36;13.30;99.90
12386;DHT22;6257;57.634;18.310;2022-09-17T00:03:04;13.40;99.90
12386;DHT22;6257;57.634;18.310;2022-09-17T00:05:33;13.40;99.90
12386;DHT22;6257;57.634;18.310;2022-09-17T00:08:02;13.30;99.90
12386;DHT22;6257;57.634;18.310;2022-09-17T00:10:30;13.30;99.90
12386;DHT22;6257;57.634;18.310;2022-09-17T00:12:58;13.30;99.90
12386;DHT22;6257;57.634;18.310;2022-09-17T00:15:25;13.30;99.90
12386;DHT22;6257;57.634;18.310;2022-09-17T00:17:53;13.30;99.90
12386;DHT22;6257;57.634;18.310;2022-09-17T00:20:22;13.30;99.90
12386;DHT22;6257;57.634;18.310;2022-09-17T00:22:50;13.30;99.90
12386;DHT22;6257;57.634;18.310;2022-09-17T00:25:17;13.30;99.90
12386;DHT22;6257;57.634;18.310;2022-09-17T00:27:44;13.30;99.90
12386;DHT22;6257;57.634;18.310;2022-09-17T00:30:12;13.30;99.90
12386;DHT22;6257;57.634;18.310;2022-09-17T00:32:39;13.20;99.90
12386;DHT22;6257;57.634;18.310;2022-09-17T00:35:07;13.20;99.90
12386;DHT22;6257;57.634;18.310;2022-09-17T00:37:34;13.20;99.90
12386;DHT22;6257;57.634;18.310;2022-09-17T00:40:03;13.20;99.90
12386;DHT22;6257;57.634;18.310;2022-09-17T00:42:30;13.20;99.90
12386;DHT22;6257;57.634;18.310;2022-09-17T00:44:57;13.10;99.90
12386;DHT22;6257;57.634;18.310;2022-09-17T00:47:28;13.10;99.90
12386;DHT22;6257;57.634;18.310;2022-09-17T00:49:58;13.10;99.90
12386;DHT22;6257;57.634;18.310;2022-09-17T00:52:29;13.10;99.90
12386;DHT22;6257;57.634;18.310;2022-09-17T00:55:04;13.20;99.90
12386;DHT22;6257;57.634;18.310;2022-09-17T00:57:33;13.20;99.90
12386;DHT22;6257;57.634;18.310;2022-09-17T01:00:02;13.20;99.90
12386;DHT22;6257;57.634;18.310;2022-09-17T01:02:30;13.20;99.90
12386;DHT22;6257;57.634;18.310;2022-09-17T01:04:57;13.20;99.90
12386;DHT22;6257;57.634;18.310;2022-09-17T01:07:47;13.20;99.90
12386;DHT22;6257;57.634;18.310;2022-09-17T01:10:33;13.20;99.90
12386;DHT22;6257;57.634;18.310;2022-09-17T01:13:11;13.20;99.90
12386;DHT22;6257;57.634;18.310;2022-09-17T01:15:46;13.20;99.90
12386;DHT22;6257;57.634;18.310;2022-09-17T01:18:24;13.20;99.90
12386;DHT22;6257;57.634;18.310;2022-09-17T01:21:26;13.10;99.90
12386;DHT22;6257;57.634;18.310;2022-09-17T01:27:28;13.10;99.90
12386;DHT22;6257;57.634;18.310;2022-09-17T01:30:14;13.00;99.90
12386;DHT22;6257;57.634;18.310;2022-09-17T01:32:44;13.10;99.90
12386;DHT22;6257;57.634;18.310;2022-09-17T01:35:16;13.10;99.90
12386;DHT22;6257;57.634;18.310;2022-09-17T01:37:55;13.00;99.90
12386;DHT22;6257;57.634;18.310;2022-09-17T01:40:27;13.00;99.90
12386;DHT22;6257;57.634;18.310;2022-09-17T01:42:59;13.00;99.90
12386;DHT22;6257;57.634;18.310;2022-09-17T01:45:33;13.00;99.90
12386;DHT22;6257;57.634;18.310;2022-09-17T01:48:06;12.70;99.90
12386;DHT22;6257;57.634;18.310;2022-09-17T01:50:38;12.40;99.90
12386;DHT22;6257;57.634;18.310;2022-09-17T01:53:07;12.20;99.90
12386;DHT22;6257;57.634;18.310;2022-09-17T01:55:38;12.10;99.90
12386;DHT22;6257;57.634;18.310;2022-09-17T01:58:10;12.00;99.90
12386;DHT22;6257;57.634;18.310;2022-09-17T02:00:41;12.00;99.90
12386;DHT22;6257;57.634;18.310;2022-09-17T02:03:16;12.00;99.90
12386;DHT22;6257;57.634;18.310;2022-09-17T02:05:48;12.00;99.90
12386;DHT22;6257;57.634;18.310;2022-09-17T02:08:18;12.10;99.90
12386;DHT22;6257;57.634;18.310;2022-09-17T02:10:50;12.30;99.90
12386;DHT22;6257;57.634;18.310;2022-09-17T02:13:21;12.30;99.90
12386;DHT22;6257;57.634;18.310;2022-09-17T02:15:54;12.40;99.90
12386;DHT22;6257;57.634;18.310;2022-09-17T02:18:25;12.40;99.90
12386;DHT22;6257;57.634;18.310;2022-09-17T02:20:58;12.40;99.90
12386;DHT22;6257;57.634;18.310;2022-09-17T02:23:33;12.40;99.90
12386;DHT22;6257;57.634;18.310;2022-09-17T02:26:05;12.30;99.90
12386;DHT22;6257;57.634;18.310;2022-09-17T02:28:40;12.40;99.90
12386;DHT22;6257;57.634;18.310;2022-09-17T02:31:08;12.30;99.90
12386;DHT22;6257;57.634;18.310;2022-09-17T02:33:39;12.30;99.90
12386;DHT22;6257;57.634;18.310;2022-09-17T02:36:07;12.30;99.90
12386;DHT22;6257;57.634;18.310;2022-09-17T02:38:34;12.30;99.90
12386;DHT22;6257;57.634;18.310;2022-09-17T02:41:09;12.20;99.90
12386;DHT22;6257;57.634;18.310;2022-09-17T02:43:45;12.20;99.90
12386;DHT22;6257;57.634;18.310;2022-09-17T02:46:32;12.10;99.90
12386;DHT22;6257;57.634;18.310;2022-09-17T02:49:22;12.20;99.90
12386;DHT22;6257;57.634;18.310;2022-09-17T02:51:58;12.20;99.90
12386;DHT22;6257;57.634;18.310;2022-09-17T02:54:30;12.20;99.90
12386;DHT22;6257;57.634;18.310;2022-09-17T02:57:09;12.20;99.90
12386;DHT22;6257;57.634;18.310;2022-09-17T02:59:45;12.20;99.90
12386;DHT22;6257;57.634;18.310;2022-09-17T03:02:18;12.30;99.90
12386;DHT22;6257;57.634;18.310;2022-09-17T03:04:49;12.30;99.90
12386;DHT22;6257;57.634;18.310;2022-09-17T03:07:18;12.30;99.90
12386;DHT22;6257;57.634;18.310;2022-09-17T03:09:45;12.30;99.90
12386;DHT22;6257;57.634;18.310;2022-09-17T03:12:13;12.30;99.90
12386;DHT22;6257;57.634;18.310;2022-09-17T03:14:40;12.30;99.90
12386;DHT22;6257;57.634;18.310;2022-09-17T03:17:07;12.30;99.90
12386;DHT22;6257;57.634;18.310;2022-09-17T03:19:34;12.30;99.90
12386;DHT22;6257;57.634;18.310;2022-09-17T03:22:02;12.30;99.90
12386;DHT22;6257;57.634;18.310;2022-09-17T03:24:29;12.30;99.90
12386;DHT22;6257;57.634;18.310;2022-09-17T03:26:56;12.30;99.90
12386;DHT22;6257;57.634;18.310;2022-09-17T03:29:23;12.40;99.90
12386;DHT22;6257;57.634;18.310;2022-09-17T03:31:50;12.30;99.90
12386;DHT22;6257;57.634;18.310;2022-09-17T03:34:17;12.40;99.90
12386;DHT22;6257;57.634;18.310;2022-09-17T03:36:45;12.40;99.90
12386;DHT22;6257;57.634;18.310;2022-09-17T03:39:14;12.50;99.90
12386;DHT22;6257;57.634;18.310;2022-09-17T03:41:41;12.50;99.90
12386;DHT22;6257;57.634;18.310;2022-09-17T03:44:08;12.50;99.90
12386;DHT22;6257;57.634;18.310;2022-09-17T03:46:35;12.40;99.90
12386;DHT22;6257;57.634;18.310;2022-09-17T03:49:02;12.40;99.90
12386;DHT22;6257;57.634;18.310;2022-09-17T03:51:29;12.30;99.90
12386;DHT22;6257;57.634;18.310;2022-09-17T03:53:56;12.40;99.90
12386;DHT22;6257;57.634;18.310;2022-09-17T03:56:25;12.40;99.90
12386;DHT22;6257;57.634;18.310;2022-09-17T03:58:56;12.40;99.90
12386;DHT22;6257;57.634;18.310;2022-09-17T04:01:23;12.30;99.90
12386;DHT22;6257;57.634;18.310;2022-09-17T04:03:51;12.30;99.90
12386;DHT22;6257;57.634;18.310;2022-09-17T04:06:18;12.30;99.90
12386;DHT22;6257;57.634;18.310;2022-09-17T04:08:45;12.40;99.90
12386;DHT22;6257;57.634;18.310;2022-09-17T04:11:12;12.30;99.90
12386;DHT22;6257;57.634;18.310;2022-09-17T04:13:40;12.40;99.90
12386;DHT22;6257;57.634;18.310;2022-09-17T04:16:08;12.40;99.90
12386;DHT22;6257;57.634;18.310;2022-09-17T04:18:36;12.40;99.90
12386;DHT22;6257;57.634;18.310;2022-09-17T04:21:03;12.50;99.90
12386;DHT22;6257;57.634;18.310;2022-09-17T04:23:30;12.50;99.90
12386;DHT22;6257;57.634;18.310;2022-09-17T04:25:57;12.50;99.90
12386;DHT22;6257;57.634;18.310;2022-09-17T04:28:24;12.50;99.90
12386;DHT22;6257;57.634;18.310;2022-09-17T04:30:52;12.50;99.90
12386;DHT22;6257;57.634;18.310;2022-09-17T04:33:19;12.50;99.90
12386;DHT22;6257;57.634;18.310;2022-09-17T04:35:46;12.50;99.90
12386;DHT22;6257;57.634;18.310;2022-09-17T04:38:13;12.50;99.90
12386;DHT22;6257;57.634;18.310;2022-09-17T04:40:43;12.50;99.90
12386;DHT22;6257;57.634;18.310;2022-09-17T04:43:11;12.40;99.90
12386;DHT22;6257;57.634;18.310;2022-09-17T04:45:38;12.40;99.90
12386;DHT22;6257;57.634;18.310;2022-09-17T04:48:06;12.30;99.90
12386;DHT22;6257;57.634;18.310;2022-09-17T04:50:33;12.40;99.90
12386;DHT22;6257;57.634;18.310;2022-09-17T04:53:00;12.40;99.90
12386;DHT22;6257;57.634;18.310;2022-09-17T04:55:27;12.30;99.90
12386;DHT22;6257;57.634;18.310;2022-09-17T04:57:56;12.30;99.90
12386;DHT22;6257;57.634;18.310;2022-09-17T05:00:23;12.40;99.90
12386;DHT22;6257;57.634;18.310;2022-09-17T05:02:51;12.40;99.90
12386;DHT22;6257;57.634;18.310;2022-09-17T05:05:21;12.40;99.90
12386;DHT22;6257;57.634;18.310;2022-09-17T05:07:48;12.40;99.90
12386;DHT22;6257;57.634;18.310;2022-09-17T05:10:17;12.40;99.90
12386;DHT22;6257;57.634;18.310;2022-09-17T05:12:47;12.40;99.90
12386;DHT22;6257;57.634;18.310;2022-09-17T05:15:15;12.50;99.90
12386;DHT22;6257;57.634;18.310;2022-09-17T05:17:42;12.50;99.90
12386;DHT22;6257;57.634;18.310;2022-09-17T05:20:09;12.40;99.90
12386;DHT22;6257;57.634;18.310;2022-09-17T05:22:41;12.50;99.90
12386;DHT22;6257;57.634;18.310;2022-09-17T05:25:09;12.50;99.90
12386;DHT22;6257;57.634;18.310;2022-09-17T05:27:37;12.50;99.90
12386;DHT22;6257;57.634;18.310;2022-09-17T05:30:05;12.60;99.90
12386;DHT22;6257;57.634;18.310;2022-09-17T05:32:32;12.60;99.90
12386;DHT22;6257;57.634;18.310;2022-09-17T05:34:59;12.70;99.90
12386;DHT22;6257;57.634;18.310;2022-09-17T05:37:26;12.70;99.90
12386;DHT22;6257;57.634;18.310;2022-09-17T05:39:55;12.70;99.90
12386;DHT22;6257;57.634;18.310;2022-09-17T05:42:22;12.70;99.90
12386;DHT22;6257;57.634;18.310;2022-09-17T05:44:49;12.70;99.90
12386;DHT22;6257;57.634;18.310;2022-09-17T05:47:16;12.70;99.90
12386;DHT22;6257;57.634;18.310;2022-09-17T05:49:43;12.70;99.90
12386;DHT22;6257;57.634;18.310;2022-09-17T05:52:10;12.80;99.90
12386;DHT22;6257;57.634;18.310;2022-09-17T05:54:37;12.80;99.90
12386;DHT22;6257;57.634;18.310;2022-09-17T05:57:05;12.80;99.90
12386;DHT22;6257;57.634;18.310;2022-09-17T05:59:32;12.80;99.90
12386;DHT22;6257;57.634;18.310;2022-09-17T06:02:00;12.80;99.90
12386;DHT22;6257;57.634;18.310;2022-09-17T06:04:27;12.90;99.90
12386;DHT22;6257;57.634;18.310;2022-09-17T06:06:54;12.90;99.90
12386;DHT22;6257;57.634;18.310;2022-09-17T06:09:21;12.90;99.90
12386;DHT22;6257;57.634;18.310;2022-09-17T06:11:48;12.90;99.90
12386;DHT22;6257;57.634;18.310;2022-09-17T06:14:16;12.90;99.90
12386;DHT22;6257;57.634;18.310;2022-09-17T06:16:43;12.90;99.90
12386;DHT22;6257;57.634;18.310;2022-09-17T06:19:10;12.90;99.90
12386;DHT22;6257;57.634;18.310;2022-09-17T06:21:37;12.90;99.90
12386;DHT22;6257;57.634;18.310;2022-09-17T06:24:04;12.90;99.90
12386;DHT22;6257;57.634;18.310;2022-09-17T06:26:31;12.90;99.90
12386;DHT22;6257;57.634;18.310;2022-09-17T06:28:58;12.90;99.90
12386;DHT22;6257;57.634;18.310;2022-09-17T06:31:27;12.90;99.90
12386;DHT22;6257;57.634;18.310;2022-09-17T06:33:55;12.90;99.90
12386;DHT22;6257;57.634;18.310;2022-09-17T06:36:22;12.90;99.90
12386;DHT22;6257;57.634;18.310;2022-09-17T06:38:49;12.90;99.90
12386;DHT22;6257;57.634;18.310;2022-09-17T06:41:16;12.90;99.90
12386;DHT22;6257;57.634;18.310;2022-09-17T06:43:43;12.90;99.90
12386;DHT22;6257;57.634;18.310;2022-09-17T06:46:11;12.90;99.90
12386;DHT22;6257;57.634;18.310;2022-09-17T06:48:39;13.00;99.90
12386;DHT22;6257;57.634;18.310;2022-09-17T06:51:07;12.90;99.90
12386;DHT22;6257;57.634;18.310;2022-09-17T06:53:36;13.00;99.90
12386;DHT22;6257;57.634;18.310;2022-09-17T06:56:05;12.90;99.90
12386;DHT22;6257;57.634;18.310;2022-09-17T06:58:33;13.00;99.90
12386;DHT22;6257;57.634;18.310;2022-09-17T07:01:02;13.00;99.90
12386;DHT22;6257;57.634;18.310;2022-09-17T07:03:30;12.90;99.90
12386;DHT22;6257;57.634;18.310;2022-09-17T07:05:59;12.90;99.90
12386;DHT22;6257;57.634;18.310;2022-09-17T07:08:26;12.90;99.90
12386;DHT22;6257;57.634;18.310;2022-09-17T07:10:54;13.00;99.90
12386;DHT22;6257;57.634;18.310;2022-09-17T07:13:21;13.00;99.90
12386;DHT22;6257;57.634;18.310;2022-09-17T07:15:52;13.00;99.90
12386;DHT22;6257;57.634;18.310;2022-09-17T07:18:20;12.90;99.90
12386;DHT22;6257;57.634;18.310;2022-09-17T07:20:52;12.90;99.90
12386;DHT22;6257;57.634;18.310;2022-09-17T07:23:21;12.90;99.90
12386;DHT22;6257;57.634;18.310;2022-09-17T07:25:52;13.00;99.90
12386;DHT22;6257;57.634;18.310;2022-09-17T07:28:19;13.10;99.90
12386;DHT22;6257;57.634;18.310;2022-09-17T07:30:46;13.20;99.90
12386;DHT22;6257;57.634;18.310;2022-09-17T07:33:14;13.30;99.90
12386;DHT22;6257;57.634;18.310;2022-09-17T07:35:41;13.30;99.90
12386;DHT22;6257;57.634;18.310;2022-09-17T07:38:08;13.30;99.90
12386;DHT22;6257;57.634;18.310;2022-09-17T07:40:36;13.30;99.90
12386;DHT22;6257;57.634;18.310;2022-09-17T07:43:03;13.20;99.90
12386;DHT22;6257;57.634;18.310;2022-09-17T07:45:31;13.30;99.90
12386;DHT22;6257;57.634;18.310;2022-09-17T07:47:58;13.40;99.90
12386;DHT22;6257;57.634;18.310;2022-09-17T07:50:25;13.30;99.90
12386;DHT22;6257;57.634;18.310;2022-09-17T07:52:52;13.30;99.90
12386;DHT22;6257;57.634;18.310;2022-09-17T07:55:19;13.40;99.90
12386;DHT22;6257;57.634;18.310;2022-09-17T07:57:51;13.50;99.90
12386;DHT22;6257;57.634;18.310;2022-09-17T08:00:18;13.50;99.90
12386;DHT22;6257;57.634;18.310;2022-09-17T08:02:51;13.50;99.90
12386;DHT22;6257;57.634;18.310;2022-09-17T08:05:18;13.50;99.90
12386;DHT22;6257;57.634;18.310;2022-09-17T08:07:48;13.60;99.90
12386;DHT22;6257;57.634;18.310;2022-09-17T08:10:15;13.50;99.90
12386;DHT22;6257;57.634;18.310;2022-09-17T08:12:46;13.50;99.90
12386;DHT22;6257;57.634;18.310;2022-09-17T08:15:14;13.70;99.90
12386;DHT22;6257;57.634;18.310;2022-09-17T08:17:42;14.00;99.90
12386;DHT22;6257;57.634;18.310;2022-09-17T08:20:10;13.90;99.90
12386;DHT22;6257;57.634;18.310;2022-09-17T08:22:37;13.70;99.90
12386;DHT22;6257;57.634;18.310;2022-09-17T08:25:05;13.70;99.90
12386;DHT22;6257;57.634;18.310;2022-09-17T08:27:32;14.00;99.90
12386;DHT22;6257;57.634;18.310;2022-09-17T08:29:59;14.10;99.90
12386;DHT22;6257;57.634;18.310;2022-09-17T08:32:28;14.00;99.90
12386;DHT22;6257;57.634;18.310;2022-09-17T08:34:55;14.00;99.90
12386;DHT22;6257;57.634;18.310;2022-09-17T08:37:23;14.00;99.90
12386;DHT22;6257;57.634;18.310;2022-09-17T08:39:50;13.90;99.90
12386;DHT22;6257;57.634;18.310;2022-09-17T08:42:21;13.70;99.90
12386;DHT22;6257;57.634;18.310;2022-09-17T08:44:51;13.70;99.90
12386;DHT22;6257;57.634;18.310;2022-09-17T08:47:24;13.70;99.90
12386;DHT22;6257;57.634;18.310;2022-09-17T08:49:55;13.70;99.90
12386;DHT22;6257;57.634;18.310;2022-09-17T08:52:50;13.70;99.90
12386;DHT22;6257;57.634;18.310;2022-09-17T08:55:31;13.80;99.90
12386;DHT22;6257;57.634;18.310;2022-09-17T08:58:10;13.90;99.90
12386;DHT22;6257;57.634;18.310;2022-09-17T09:00:44;13.90;99.90
12386;DHT22;6257;57.634;18.310;2022-09-17T09:03:22;13.90;99.90
12386;DHT22;6257;57.634;18.310;2022-09-17T09:05:54;14.00;99.90
12386;DHT22;6257;57.634;18.310;2022-09-17T09:08:26;14.00;99.90
12386;DHT22;6257;57.634;18.310;2022-09-17T09:10:56;13.90;99.90
12386;DHT22;6257;57.634;18.310;2022-09-17T09:13:27;13.80;99.90
12386;DHT22;6257;57.634;18.310;2022-09-17T09:15:58;13.80;99.90
12386;DHT22;6257;57.634;18.310;2022-09-17T09:18:28;13.80;99.90
12386;DHT22;6257;57.634;18.310;2022-09-17T09:21:08;13.80;99.90
12386;DHT22;6257;57.634;18.310;2022-09-17T09:23:46;13.90;99.90
12386;DHT22;6257;57.634;18.310;2022-09-17T09:26:18;13.90;99.90
12386;DHT22;6257;57.634;18.310;2022-09-17T09:31:56;13.80;99.90
12386;DHT22;6257;57.634;18.310;2022-09-17T09:34:25;13.80;99.90
12386;DHT22;6257;57.634;18.310;2022-09-17T09:37:17;13.80;99.90
12386;DHT22;6257;57.634;18.310;2022-09-17T09:39:46;13.80;99.90
12386;DHT22;6257;57.634;18.310;2022-09-17T09:42:21;13.90;99.90
12386;DHT22;6257;57.634;18.310;2022-09-17T09:44:49;14.00;99.90
12386;DHT22;6257;57.634;18.310;2022-09-17T09:47:39;14.20;99.90
12386;DHT22;6257;57.634;18.310;2022-09-17T09:50:21;14.20;99.90
12386;DHT22;6257;57.634;18.310;2022-09-17T09:53:03;14.20;99.90
12386;DHT22;6257;57.634;18.310;2022-09-17T09:55:44;14.10;99.90
12386;DHT22;6257;57.634;18.310;2022-09-17T09:58:23;14.10;99.90
12386;DHT22;6257;57.634;18.310;2022-09-17T10:00:54;14.30;99.90
12386;DHT22;6257;57.634;18.310;2022-09-17T10:03:23;14.40;99.90
12386;DHT22;6257;57.634;18.310;2022-09-17T10:05:53;14.40;99.90
12386;DHT22;6257;57.634;18.310;2022-09-17T10:08:24;14.20;99.90
12386;DHT22;6257;57.634;18.310;2022-09-17T10:10:59;14.10;99.90
12386;DHT22;6257;57.634;18.310;2022-09-17T10:13:28;14.20;99.90
12386;DHT22;6257;57.634;18.310;2022-09-17T10:15:55;14.10;99.90
12386;DHT22;6257;57.634;18.310;2022-09-17T10:18:24;14.20;99.90
12386;DHT22;6257;57.634;18.310;2022-09-17T10:20:56;14.20;99.90
12386;DHT22;6257;57.634;18.310;2022-09-17T10:23:26;14.20;99.90
12386;DHT22;6257;57.634;18.310;2022-09-17T10:25:54;14.20;99.90
12386;DHT22;6257;57.634;18.310;2022-09-17T10:28:34;14.20;99.90
12386;DHT22;6257;57.634;18.310;2022-09-17T10:31:06;14.20;99.90
12386;DHT22;6257;57.634;18.310;2022-09-17T10:33:38;14.20;99.90
12386;DHT22;6257;57.634;18.310;2022-09-17T10:36:07;14.20;99.90
12386;DHT22;6257;57.634;18.310;2022-09-17T10:38:38;14.20;99.90
12386;DHT22;6257;57.634;18.310;2022-09-17T10:41:17;14.10;99.90
12386;DHT22;6257;57.634;18.310;2022-09-17T10:43:47;14.10;99.90
12386;DHT22;6257;57.634;18.310;2022-09-17T10:46:17;14.20;99.90
12386;DHT22;6257;57.634;18.310;2022-09-17T10:48:52;14.30;99.90
12386;DHT22;6257;57.634;18.310;2022-09-17T10:51:23;14.40;99.90
12386;DHT22;6257;57.634;18.310;2022-09-17T10:54:24;14.50;99.90
12386;DHT22;6257;57.634;18.310;2022-09-17T10:56:55;14.50;99.90
12386;DHT22;6257;57.634;18.310;2022-09-17T10:59:37;14.70;99.90
12386;DHT22;6257;57.634;18.310;2022-09-17T11:02:29;14.70;99.90
12386;DHT22;6257;57.634;18.310;2022-09-17T11:05:06;14.80;99.90
12386;DHT22;6257;57.634;18.310;2022-09-17T11:07:43;14.90;99.90
12386;DHT22;6257;57.634;18.310;2022-09-17T11:10:21;14.90;99.90
12386;DHT22;6257;57.634;18.310;2022-09-17T11:13:03;14.80;99.90
12386;DHT22;6257;57.634;18.310;2022-09-17T11:15:42;14.80;99.90
12386;DHT22;6257;57.634;18.310;2022-09-17T11:18:31;15.00;99.90
12386;DHT22;6257;57.634;18.310;2022-09-17T11:21:35;15.20;99.90
12386;DHT22;6257;57.634;18.310;2022-09-17T11:24:31;15.30;99.90
12386;DHT22;6257;57.634;18.310;2022-09-17T11:27:22;15.20;99.90
12386;DHT22;6257;57.634;18.310;2022-09-17T11:30:04;14.90;99.90
12386;DHT22;6257;57.634;18.310;2022-09-17T11:32:50;14.70;99.90
12386;DHT22;6257;57.634;18.310;2022-09-17T11:35:24;14.50;99.90
12386;DHT22;6257;57.634;18.310;2022-09-17T11:37:57;14.40;99.90
12386;DHT22;6257;57.634;18.310;2022-09-17T11:40:33;14.20;99.90
12386;DHT22;6257;57.634;18.310;2022-09-17T11:43:11;14.10;99.90
12386;DHT22;6257;57.634;18.310;2022-09-17T11:45:45;14.00;99.90
12386;DHT22;6257;57.634;18.310;2022-09-17T11:48:17;14.00;99.90
12386;DHT22;6257;57.634;18.310;2022-09-17T11:50:48;13.90;99.90
12386;DHT22;6257;57.634;18.310;2022-09-17T11:53:21;13.90;99.90
12386;DHT22;6257;57.634;18.310;2022-09-17T11:55:52;13.80;99.90
12386;DHT22;6257;57.634;18.310;2022-09-17T11:58:27;13.80;99.90
12386;DHT22;6257;57.634;18.310;2022-09-17T12:01:01;13.80;99.90
12386;DHT22;6257;57.634;18.310;2022-09-17T12:03:33;13.80;99.90
12386;DHT22;6257;57.634;18.310;2022-09-17T12:06:06;13.80;99.90
12386;DHT22;6257;57.634;18.310;2022-09-17T12:08:39;14.00;99.90
12386;DHT22;6257;57.634;18.310;2022-09-17T12:11:12;14.00;99.90
12386;DHT22;6257;57.634;18.310;2022-09-17T12:13:44;14.10;99.90
12386;DHT22;6257;57.634;18.310;2022-09-17T12:16:15;14.10;99.90
12386;DHT22;6257;57.634;18.310;2022-09-17T12:18:51;14.10;99.90
12386;DHT22;6257;57.634;18.310;2022-09-17T12:21:24;14.10;99.90
12386;DHT22;6257;57.634;18.310;2022-09-17T12:23:56;14.10;99.90
12386;DHT22;6257;57.634;18.310;2022-09-17T12:26:48;14.10;99.90
12386;DHT22;6257;57.634;18.310;2022-09-17T12:29:29;14.10;99.90
12386;DHT22;6257;57.634;18.310;2022-09-17T12:32:05;14.20;99.90
12386;DHT22;6257;57.634;18.310;2022-09-17T12:34:46;14.20;99.90
12386;DHT22;6257;57.634;18.310;2022-09-17T12:37:21;14.20;99.90
12386;DHT22;6257;57.634;18.310;2022-09-17T12:39:58;14.20;99.90
12386;DHT22;6257;57.634;18.310;2022-09-17T12:42:43;14.20;99.90
12386;DHT22;6257;57.634;18.310;2022-09-17T12:45:31;14.20;99.90
12386;DHT22;6257;57.634;18.310;2022-09-17T12:48:23;14.20;99.90
12386;DHT22;6257;57.634;18.310;2022-09-17T12:51:06;14.20;99.90
12386;DHT22;6257;57.634;18.310;2022-09-17T12:53:42;14.20;99.90
12386;DHT22;6257;57.634;18.310;2022-09-17T12:56:22;14.10;99.90
12386;DHT22;6257;57.634;18.310;2022-09-17T12:59:06;14.10;99.90
12386;DHT22;6257;57.634;18.310;2022-09-17T13:01:42;14.00;99.90
12386;DHT22;6257;57.634;18.310;2022-09-17T13:04:26;14.00;99.90
12386;DHT22;6257;57.634;18.310;2022-09-17T13:07:18;14.00;99.90
12386;DHT22;6257;57.634;18.310;2022-09-17T13:10:28;14.00;99.90
12386;DHT22;6257;57.634;18.310;2022-09-17T13:13:06;14.10;99.90
12386;DHT22;6257;57.634;18.310;2022-09-17T13:15:53;14.10;99.90
12386;DHT22;6257;57.634;18.310;2022-09-17T13:18:28;14.20;99.90
12386;DHT22;6257;57.634;18.310;2022-09-17T13:20:59;14.20;99.90
12386;DHT22;6257;57.634;18.310;2022-09-17T13:23:32;14.40;99.90
12386;DHT22;6257;57.634;18.310;2022-09-17T13:26:00;14.50;99.90
12386;DHT22;6257;57.634;18.310;2022-09-17T13:28:43;14.60;99.90
12386;DHT22;6257;57.634;18.310;2022-09-17T13:31:11;14.60;99.90
12386;DHT22;6257;57.634;18.310;2022-09-17T13:33:54;14.70;99.90
12386;DHT22;6257;57.634;18.310;2022-09-17T13:36:44;14.60;99.90
12386;DHT22;6257;57.634;18.310;2022-09-17T13:39:38;14.60;99.90
12386;DHT22;6257;57.634;18.310;2022-09-17T13:42:13;14.60;99.90
12386;DHT22;6257;57.634;18.310;2022-09-17T13:44:42;14.50;99.90
12386;DHT22;6257;57.634;18.310;2022-09-17T13:47:17;14.50;99.90
12386;DHT22;6257;57.634;18.310;2022-09-17T13:49:49;14.40;99.90
12386;DHT22;6257;57.634;18.310;2022-09-17T13:52:34;14.30;99.90
12386;DHT22;6257;57.634;18.310;2022-09-17T13:55:02;13.50;99.90
12386;DHT22;6257;57.634;18.310;2022-09-17T13:57:32;14.30;99.90
12386;DHT22;6257;57.634;18.310;2022-09-17T14:00:00;14.30;99.90
12386;DHT22;6257;57.634;18.310;2022-09-17T14:02:34;14.20;99.90
12386;DHT22;6257;57.634;18.310;2022-09-17T14:05:35;14.20;99.90
12386;DHT22;6257;57.634;18.310;2022-09-17T14:08:29;14.20;99.90
12386;DHT22;6257;57.634;18.310;2022-09-17T14:10:59;14.20;99.90
12386;DHT22;6257;57.634;18.310;2022-09-17T14:13:51;14.20;99.90
12386;DHT22;6257;57.634;18.310;2022-09-17T14:19:27;14.20;99.90
12386;DHT22;6257;57.634;18.310;2022-09-17T14:21:59;14.30;99.90
12386;DHT22;6257;57.634;18.310;2022-09-17T14:24:34;14.40;99.90
12386;DHT22;6257;57.634;18.310;2022-09-17T14:27:10;13.60;99.90
12386;DHT22;6257;57.634;18.310;2022-09-17T14:32:53;14.40;99.90
12386;DHT22;6257;57.634;18.310;2022-09-17T14:35:25;14.40;99.90
12386;DHT22;6257;57.634;18.310;2022-09-17T14:37:59;14.40;99.90
12386;DHT22;6257;57.634;18.310;2022-09-17T14:40:26;14.40;99.90
12386;DHT22;6257;57.634;18.310;2022-09-17T14:42:56;14.40;99.90
12386;DHT22;6257;57.634;18.310;2022-09-17T14:45:27;14.40;99.90
12386;DHT22;6257;57.634;18.310;2022-09-17T14:48:16;14.50;99.90
12386;DHT22;6257;57.634;18.310;2022-09-17T14:50:43;14.40;99.90
12386;DHT22;6257;57.634;18.310;2022-09-17T14:53:15;14.40;99.90
12386;DHT22;6257;57.634;18.310;2022-09-17T14:55:44;14.40;99.90
12386;DHT22;6257;57.634;18.310;2022-09-17T14:58:29;14.50;99.90
12386;DHT22;6257;57.634;18.310;2022-09-17T15:00:57;14.60;99.90
12386;DHT22;6257;57.634;18.310;2022-09-17T15:03:24;14.50;99.90
12386;DHT22;6257;57.634;18.310;2022-09-17T15:05:51;14.60;99.90
12386;DHT22;6257;57.634;18.310;2022-09-17T15:08:21;14.60;99.90
12386;DHT22;6257;57.634;18.310;2022-09-17T15:10:51;14.60;99.90
12386;DHT22;6257;57.634;18.310;2022-09-17T15:13:22;14.60;99.90
12386;DHT22;6257;57.634;18.310;2022-09-17T15:15:53;14.70;99.90
12386;DHT22;6257;57.634;18.310;2022-09-17T15:18:35;14.70;99.90
12386;DHT22;6257;57.634;18.310;2022-09-17T15:21:09;14.80;99.90
12386;DHT22;6257;57.634;18.310;2022-09-17T15:23:41;14.90;99.90
12386;DHT22;6257;57.634;18.310;2022-09-17T15:26:10;14.80;99.90
12386;DHT22;6257;57.634;18.310;2022-09-17T15:28:40;14.90;99.90
12386;DHT22;6257;57.634;18.310;2022-09-17T15:31:14;14.90;99.90
12386;DHT22;6257;57.634;18.310;2022-09-17T15:33:42;14.90;99.90
12386;DHT22;6257;57.634;18.310;2022-09-17T15:36:17;14.90;99.90
12386;DHT22;6257;57.634;18.310;2022-09-17T15:38:47;14.90;99.90
12386;DHT22;6257;57.634;18.310;2022-09-17T15:41:28;14.80;99.90
12386;DHT22;6257;57.634;18.310;2022-09-17T15:44:06;14.80;99.90
12386;DHT22;6257;57.634;18.310;2022-09-17T15:46:33;14.70;99.90
12386;DHT22;6257;57.634;18.310;2022-09-17T15:49:01;14.70;99.90
12386;DHT22;6257;57.634;18.310;2022-09-17T15:51:30;14.70;99.90
12386;DHT22;6257;57.634;18.310;2022-09-17T15:54:00;14.70;99.90
12386;DHT22;6257;57.634;18.310;2022-09-17T15:56:30;14.70;99.90
12386;DHT22;6257;57.634;18.310;2022-09-17T15:59:00;14.80;99.90
12386;DHT22;6257;57.634;18.310;2022-09-17T16:01:49;14.80;99.90
12386;DHT22;6257;57.634;18.310;2022-09-17T16:04:22;14.90;99.90
12386;DHT22;6257;57.634;18.310;2022-09-17T16:06:55;14.90;99.90
12386;DHT22;6257;57.634;18.310;2022-09-17T16:09:39;14.90;99.90
12386;DHT22;6257;57.634;18.310;2022-09-17T16:12:06;14.90;99.90
12386;DHT22;6257;57.634;18.310;2022-09-17T16:14:34;14.90;99.90